createdAt,value
2022-12-18T00:00:05.076Z,-0.20
2022-12-18T00:02:32.956Z,-0.10
2022-12-18T00:05:02.199Z,-0.10
2022-12-18T00:07:31.804Z,-0.10
2022-12-18T00:10:00.098Z,-0.10
2022-12-18T00:12:29.965Z,-0.10
2022-12-18T00:14:58.039Z,-0.10
2022-12-18T00:17:25.718Z,-0.10
2022-12-18T00:19:54.319Z,-0.10
2022-12-18T00:22:22.637Z,-0.10
2022-12-18T00:24:51.052Z,-0.10
2022-12-18T00:27:19.320Z,-0.10
2022-12-18T00:29:50.008Z,0.00
2022-12-18T00:32:19.158Z,0.00
2022-12-18T00:34:47.486Z,0.00
2022-12-18T00:37:19.859Z,0.00
2022-12-18T00:39:49.951Z,0.00
2022-12-18T00:42:35.423Z,0.10
2022-12-18T00:45:09.026Z,0.10
2022-12-18T00:47:42.270Z,0.10
2022-12-18T00:50:10.094Z,0.00
2022-12-18T00:52:40.840Z,0.00
2022-12-18T00:55:11.930Z,0.10
2022-12-18T00:57:41.764Z,0.00
2022-12-18T01:00:15.107Z,0.00
2022-12-18T01:02:43.310Z,0.10
2022-12-18T01:05:14.919Z,0.10
2022-12-18T01:07:42.795Z,0.10
2022-12-18T01:10:13.608Z,0.10
2022-12-18T01:12:41.380Z,0.20
2022-12-18T01:15:12.738Z,0.10
2022-12-18T01:17:41.231Z,0.10
2022-12-18T01:20:11.735Z,0.20
2022-12-18T01:22:40.875Z,0.10
2022-12-18T01:25:09.735Z,0.10
2022-12-18T01:27:37.417Z,0.10
2022-12-18T01:30:05.719Z,0.10
2022-12-18T01:32:34.125Z,0.10
2022-12-18T01:35:01.819Z,0.10
2022-12-18T01:37:29.395Z,0.10
2022-12-18T01:39:57.910Z,0.10
2022-12-18T01:42:26.644Z,0.20
2022-12-18T01:45:02.384Z,0.20
2022-12-18T01:47:47.372Z,0.20
2022-12-18T01:50:18.387Z,0.20
2022-12-18T01:53:00.583Z,0.20
2022-12-18T01:55:31.965Z,0.20
2022-12-18T01:58:01.419Z,0.20
2022-12-18T02:00:30.922Z,0.20
2022-12-18T02:02:59.349Z,0.20
2022-12-18T02:06:05.767Z,0.30
2022-12-18T02:08:38.836Z,0.20
2022-12-18T02:11:29.017Z,0.30
2022-12-18T02:14:07.120Z,0.30
2022-12-18T02:17:02.149Z,0.30
2022-12-18T02:19:45.111Z,0.30
2022-12-18T02:22:33.927Z,0.30
2022-12-18T02:25:26.609Z,0.30
2022-12-18T02:27:57.169Z,0.30
2022-12-18T02:30:29.989Z,0.30
2022-12-18T02:33:00.952Z,0.30
2022-12-18T02:35:31.532Z,0.20
2022-12-18T02:38:00.616Z,0.30
2022-12-18T02:40:30.839Z,0.30
2022-12-18T02:43:14.386Z,0.30
2022-12-18T02:45:49.933Z,0.30
2022-12-18T02:48:22.324Z,0.30
2022-12-18T02:51:17.738Z,0.30
2022-12-18T02:53:57.228Z,0.30
2022-12-18T02:56:35.599Z,0.30
2022-12-18T02:59:19.985Z,0.30
2022-12-18T03:02:10.898Z,0.30
2022-12-18T03:04:50.527Z,0.30
2022-12-18T03:07:27.166Z,0.30
2022-12-18T03:09:56.318Z,0.30
2022-12-18T03:12:35.003Z,0.30
2022-12-18T03:15:18.152Z,0.30
2022-12-18T03:18:08.949Z,0.40
2022-12-18T03:20:43.463Z,0.30
2022-12-18T03:23:18.797Z,0.30
2022-12-18T03:25:50.785Z,0.40
2022-12-18T03:28:23.757Z,0.40
2022-12-18T03:30:56.951Z,0.30
2022-12-18T03:33:35.813Z,0.30
2022-12-18T03:36:04.699Z,0.30
2022-12-18T03:38:32.435Z,0.30
2022-12-18T03:41:04.283Z,0.30
2022-12-18T03:43:47.948Z,0.30
2022-12-18T03:46:24.790Z,0.30
2022-12-18T03:49:02.544Z,0.30
2022-12-18T03:51:44.820Z,0.30
2022-12-18T03:54:13.888Z,0.30
2022-12-18T03:56:50.291Z,0.20
2022-12-18T03:59:20.578Z,0.20
2022-12-18T04:01:52.264Z,0.20
2022-12-18T04:04:21.307Z,0.20
2022-12-18T04:06:50.633Z,0.20
2022-12-18T04:09:18.888Z,0.20
2022-12-18T04:11:48.530Z,0.20
2022-12-18T04:14:18.223Z,0.30
2022-12-18T04:16:47.500Z,0.20
2022-12-18T04:19:17.264Z,0.20
2022-12-18T04:21:44.927Z,0.20
2022-12-18T04:24:12.524Z,0.20
2022-12-18T04:26:39.443Z,0.10
2022-12-18T04:29:08.444Z,0.20
2022-12-18T04:31:39.031Z,0.20
2022-12-18T04:34:06.625Z,0.20
2022-12-18T04:36:34.402Z,0.20
2022-12-18T04:39:02.287Z,0.20
2022-12-18T04:41:30.013Z,0.10
2022-12-18T04:43:58.561Z,0.10
2022-12-18T04:46:27.008Z,0.20
2022-12-18T04:48:56.264Z,0.10
2022-12-18T04:51:26.672Z,0.20
2022-12-18T04:53:55.736Z,0.10
2022-12-18T04:56:24.985Z,0.20
2022-12-18T04:58:53.312Z,0.20
2022-12-18T05:01:21.176Z,0.20
2022-12-18T05:03:48.528Z,0.20
2022-12-18T05:06:16.232Z,0.20
2022-12-18T05:08:45.953Z,0.20
2022-12-18T05:11:16.721Z,0.20
2022-12-18T05:13:45.384Z,0.20
2022-12-18T05:16:12.434Z,0.20
2022-12-18T05:18:41.500Z,0.20
2022-12-18T05:21:09.133Z,0.20
2022-12-18T05:23:37.935Z,0.20
2022-12-18T05:26:07.681Z,0.10
2022-12-18T05:28:37.944Z,0.20
2022-12-18T05:31:06.563Z,0.10
2022-12-18T05:33:36.545Z,0.10
2022-12-18T05:36:07.788Z,0.10
2022-12-18T05:38:37.741Z,0.10
2022-12-18T05:41:06.653Z,0.20
2022-12-18T05:43:37.509Z,0.10
2022-12-18T05:46:12.826Z,0.10
2022-12-18T05:48:43.355Z,0.10
2022-12-18T05:51:15.542Z,0.10
2022-12-18T05:53:44.425Z,0.10
2022-12-18T05:56:19.451Z,0.10
2022-12-18T05:58:48.224Z,0.20
2022-12-18T06:01:22.669Z,0.20
2022-12-18T06:03:53.231Z,0.20
2022-12-18T06:06:26.365Z,0.20
2022-12-18T06:08:54.467Z,0.20
2022-12-18T06:11:24.080Z,0.20
2022-12-18T06:13:58.242Z,0.20
2022-12-18T06:16:29.839Z,0.20
2022-12-18T06:18:59.091Z,0.20
2022-12-18T06:21:29.277Z,0.20
2022-12-18T06:23:57.358Z,0.20
2022-12-18T06:26:28.346Z,0.20
2022-12-18T06:28:57.116Z,0.30
2022-12-18T06:31:27.234Z,0.30
2022-12-18T06:33:54.184Z,0.30
2022-12-18T06:36:22.356Z,0.30
2022-12-18T06:38:50.121Z,0.30
2022-12-18T06:41:20.989Z,0.30
2022-12-18T06:43:48.744Z,0.30
2022-12-18T06:46:17.174Z,0.40
2022-12-18T06:48:50.867Z,0.40
2022-12-18T06:51:20.185Z,0.40
2022-12-18T06:53:48.167Z,0.40
2022-12-18T06:56:15.818Z,0.40
2022-12-18T06:58:45.559Z,0.40
2022-12-18T07:01:14.660Z,0.40
2022-12-18T07:03:42.618Z,0.40
2022-12-18T07:06:19.801Z,0.50
2022-12-18T07:08:49.894Z,0.50
2022-12-18T07:11:17.957Z,0.50
2022-12-18T07:13:47.285Z,0.50
2022-12-18T07:16:24.225Z,0.50
2022-12-18T07:18:52.053Z,0.60
2022-12-18T07:21:21.633Z,0.60
2022-12-18T07:23:49.739Z,0.70
2022-12-18T07:26:21.514Z,0.70
2022-12-18T07:28:50.609Z,0.70
2022-12-18T07:31:21.939Z,0.70
2022-12-18T07:33:51.176Z,0.80
2022-12-18T07:36:24.143Z,0.80
2022-12-18T07:38:55.860Z,0.80
2022-12-18T07:41:23.336Z,0.80
2022-12-18T07:43:50.912Z,0.90
2022-12-18T07:46:19.401Z,0.90
2022-12-18T07:48:49.808Z,0.90
2022-12-18T07:51:19.502Z,0.90
2022-12-18T07:53:49.717Z,1.00
2022-12-18T07:56:27.807Z,1.00
2022-12-18T07:58:56.428Z,1.00
2022-12-18T08:01:23.598Z,1.10
2022-12-18T08:03:54.697Z,1.10
2022-12-18T08:06:24.204Z,1.20
2022-12-18T08:08:56.968Z,1.20
2022-12-18T08:11:26.854Z,1.20
2022-12-18T08:13:54.521Z,1.30
2022-12-18T08:16:23.468Z,1.30
2022-12-18T08:18:53.347Z,1.40
2022-12-18T08:21:27.359Z,1.40
2022-12-18T08:23:57.298Z,1.40
2022-12-18T08:26:28.416Z,1.40
2022-12-18T08:28:58.037Z,1.50
2022-12-18T08:31:31.095Z,1.50
2022-12-18T08:33:59.447Z,1.50
2022-12-18T08:36:27.607Z,1.60
2022-12-18T08:38:55.905Z,1.60
2022-12-18T08:41:24.394Z,1.60
2022-12-18T08:44:11.004Z,1.70
2022-12-18T08:46:42.393Z,1.70
2022-12-18T08:49:12.914Z,1.70
2022-12-18T08:51:40.793Z,1.80
2022-12-18T08:54:12.709Z,1.80
2022-12-18T08:56:40.718Z,1.80
2022-12-18T08:59:14.467Z,1.80
2022-12-18T09:01:49.312Z,1.90
2022-12-18T09:04:17.786Z,1.90
2022-12-18T09:06:45.400Z,1.90
2022-12-18T09:09:13.516Z,2.00
2022-12-18T09:11:42.149Z,2.00
2022-12-18T09:14:11.988Z,2.00
2022-12-18T09:16:39.679Z,2.00
2022-12-18T09:19:08.114Z,2.00
2022-12-18T09:21:42.232Z,2.10
2022-12-18T09:24:17.077Z,2.10
2022-12-18T09:26:47.596Z,2.10
2022-12-18T09:29:18.697Z,2.10
2022-12-18T09:31:46.796Z,2.20
2022-12-18T09:34:17.796Z,2.20
2022-12-18T09:36:46.266Z,2.20
2022-12-18T09:39:15.732Z,2.20
2022-12-18T09:41:54.624Z,2.30
2022-12-18T09:44:33.879Z,2.30
2022-12-18T09:47:37.428Z,2.30
2022-12-18T09:50:17.652Z,2.30
2022-12-18T09:52:48.524Z,2.40
2022-12-18T09:55:38.681Z,2.40
2022-12-18T09:58:14.875Z,2.50
2022-12-18T10:00:44.096Z,2.50
2022-12-18T10:03:15.872Z,2.50
2022-12-18T10:06:10.325Z,2.60
2022-12-18T10:08:58.272Z,2.60
2022-12-18T10:11:40.954Z,2.60
2022-12-18T10:14:20.825Z,2.70
2022-12-18T10:16:49.518Z,2.70
2022-12-18T10:19:36.028Z,2.70
2022-12-18T10:22:33.575Z,2.80
2022-12-18T10:25:35.708Z,2.80
2022-12-18T10:28:18.408Z,2.80
2022-12-18T10:30:46.825Z,2.80
2022-12-18T10:33:21.695Z,2.80
2022-12-18T10:35:52.148Z,2.90
2022-12-18T10:38:28.288Z,2.90
2022-12-18T10:40:57.970Z,2.90
2022-12-18T10:43:30.475Z,2.90
2022-12-18T10:46:00.216Z,2.90
2022-12-18T10:48:29.558Z,2.90
2022-12-18T10:51:14.000Z,2.90
2022-12-18T10:53:43.983Z,2.90
2022-12-18T10:56:20.709Z,2.90
2022-12-18T10:59:06.955Z,2.90
2022-12-18T11:01:50.587Z,3.00
2022-12-18T11:04:30.503Z,2.90
2022-12-18T11:07:02.760Z,3.00
2022-12-18T11:09:38.589Z,3.00
2022-12-18T11:12:11.579Z,3.00
2022-12-18T11:14:52.745Z,3.00
2022-12-18T11:17:33.536Z,3.00
2022-12-18T11:20:23.472Z,3.00
2022-12-18T11:23:02.287Z,3.00
2022-12-18T11:25:32.924Z,3.00
2022-12-18T11:28:26.152Z,3.00
2022-12-18T11:31:12.732Z,3.00
2022-12-18T11:33:58.648Z,3.00
2022-12-18T11:36:39.711Z,3.00
2022-12-18T11:39:23.242Z,3.00
2022-12-18T11:42:10.983Z,3.00
2022-12-18T11:44:39.340Z,3.00
2022-12-18T11:47:35.228Z,3.00
2022-12-18T11:50:11.685Z,3.00
2022-12-18T11:52:41.851Z,3.00
2022-12-18T11:55:35.202Z,3.00
2022-12-18T11:58:32.984Z,3.00
2022-12-18T12:01:44.641Z,3.00
2022-12-18T12:04:19.199Z,3.00
2022-12-18T12:06:54.205Z,3.00
2022-12-18T12:10:02.520Z,3.00
2022-12-18T12:12:48.967Z,3.00
2022-12-18T12:15:53.744Z,3.00
2022-12-18T12:18:34.607Z,3.00
2022-12-18T12:21:22.451Z,3.10
2022-12-18T12:24:02.722Z,3.10
2022-12-18T12:26:37.358Z,3.10
2022-12-18T12:29:21.407Z,3.10
2022-12-18T12:32:34.524Z,3.10
2022-12-18T12:35:17.797Z,3.20
2022-12-18T12:37:56.415Z,3.20
2022-12-18T12:41:02.456Z,3.20
2022-12-18T12:43:28.459Z,3.20
2022-12-18T12:46:07.571Z,3.20
2022-12-18T12:48:47.011Z,3.20
2022-12-18T12:51:22.200Z,3.20
2022-12-18T12:53:51.220Z,3.20
2022-12-18T12:56:22.216Z,3.20
2022-12-18T12:59:20.087Z,3.20
2022-12-18T13:01:59.398Z,3.20
2022-12-18T13:04:36.683Z,3.30
2022-12-18T13:07:15.596Z,3.20
2022-12-18T13:10:13.696Z,3.30
2022-12-18T13:12:59.466Z,3.30
2022-12-18T13:15:46.890Z,3.30
2022-12-18T13:18:18.737Z,3.30
2022-12-18T13:20:58.504Z,3.30
2022-12-18T13:23:42.001Z,3.40
2022-12-18T13:26:17.436Z,3.40
2022-12-18T13:28:48.120Z,3.40
2022-12-18T13:31:40.390Z,3.40
2022-12-18T13:34:28.113Z,3.40
2022-12-18T13:37:00.492Z,3.40
2022-12-18T13:39:36.072Z,3.40
2022-12-18T13:42:08.609Z,3.40
2022-12-18T13:44:42.004Z,3.40
2022-12-18T13:47:32.278Z,3.40
2022-12-18T13:50:00.096Z,3.50
2022-12-18T13:52:39.833Z,3.50
2022-12-18T13:55:15.996Z,3.50
2022-12-18T13:57:42.962Z,3.50
2022-12-18T14:00:30.591Z,3.50
2022-12-18T14:02:58.979Z,3.60
2022-12-18T14:05:39.945Z,3.60
2022-12-18T14:08:16.217Z,3.60
2022-12-18T14:10:48.942Z,3.60
2022-12-18T14:13:42.788Z,3.60
2022-12-18T14:16:16.403Z,3.60
2022-12-18T14:19:00.112Z,3.60
2022-12-18T14:21:36.201Z,3.60
2022-12-18T14:24:23.136Z,3.60
2022-12-18T14:26:52.234Z,3.60
2022-12-18T14:29:25.616Z,3.60
2022-12-18T14:32:19.512Z,3.60
2022-12-18T14:34:49.470Z,3.60
2022-12-18T14:37:21.718Z,3.70
2022-12-18T14:40:11.070Z,3.70
2022-12-18T14:42:40.027Z,3.70
2022-12-18T14:45:43.063Z,3.70
2022-12-18T14:48:15.459Z,3.70
2022-12-18T14:50:55.798Z,3.70
2022-12-18T14:54:01.458Z,3.70
2022-12-18T14:56:35.621Z,3.80
2022-12-18T14:59:18.066Z,3.80
2022-12-18T15:02:04.074Z,3.80
2022-12-18T15:04:36.951Z,3.80
2022-12-18T15:07:17.034Z,3.80
2022-12-18T15:10:27.037Z,3.80
2022-12-18T15:12:57.856Z,3.80
2022-12-18T15:15:34.634Z,3.90
2022-12-18T15:18:13.846Z,3.80
2022-12-18T15:20:50.430Z,3.80
2022-12-18T15:23:38.122Z,3.80
2022-12-18T15:26:10.032Z,3.80
2022-12-18T15:28:53.120Z,3.80
2022-12-18T15:31:25.657Z,3.80
2022-12-18T15:33:54.048Z,3.80
2022-12-18T15:36:26.676Z,3.80
2022-12-18T15:39:04.822Z,3.80
2022-12-18T15:41:36.848Z,3.80
2022-12-18T15:44:22.016Z,3.80
2022-12-18T15:46:50.031Z,3.80
2022-12-18T15:49:17.676Z,3.80
2022-12-18T15:51:45.420Z,3.80
2022-12-18T15:54:36.084Z,3.80
2022-12-18T15:57:22.185Z,3.80
2022-12-18T15:59:49.125Z,3.80
2022-12-18T16:02:19.303Z,3.80
2022-12-18T16:04:48.624Z,3.80
2022-12-18T16:07:18.144Z,3.80
2022-12-18T16:09:49.804Z,3.80
2022-12-18T16:12:24.317Z,3.90
2022-12-18T16:14:52.752Z,3.90
2022-12-18T16:17:20.995Z,3.80
2022-12-18T16:19:49.444Z,3.90
2022-12-18T16:22:26.323Z,3.80
2022-12-18T16:24:56.781Z,3.90
2022-12-18T16:27:26.390Z,3.90
2022-12-18T16:29:53.332Z,3.80
2022-12-18T16:32:23.295Z,3.80
2022-12-18T16:34:51.911Z,3.80
2022-12-18T16:37:20.262Z,3.80
2022-12-18T16:39:47.913Z,3.80
2022-12-18T16:42:20.286Z,3.80
2022-12-18T16:44:50.107Z,3.80
2022-12-18T16:47:19.402Z,3.80
2022-12-18T16:49:47.294Z,3.80
2022-12-18T16:52:14.957Z,3.80
2022-12-18T16:54:42.575Z,3.80
2022-12-18T16:57:14.245Z,3.80
2022-12-18T16:59:42.270Z,3.80
2022-12-18T17:02:19.168Z,3.90
2022-12-18T17:04:56.809Z,3.80
2022-12-18T17:07:26.521Z,3.80
2022-12-18T17:09:55.262Z,3.80
2022-12-18T17:12:23.644Z,3.80
2022-12-18T17:14:52.214Z,3.80
2022-12-18T17:17:22.623Z,3.70
2022-12-18T17:19:52.837Z,3.80
2022-12-18T17:22:21.922Z,3.70
2022-12-18T17:24:50.199Z,3.70
2022-12-18T17:27:18.499Z,3.70
2022-12-18T17:29:48.466Z,3.70
2022-12-18T17:32:17.839Z,3.70
2022-12-18T17:34:45.555Z,3.70
2022-12-18T17:37:13.439Z,3.70
2022-12-18T17:39:42.295Z,3.70
2022-12-18T17:42:15.171Z,3.70
2022-12-18T17:44:45.575Z,3.70
2022-12-18T17:47:13.970Z,3.70
2022-12-18T17:49:41.953Z,3.70
2022-12-18T17:52:10.842Z,3.70
2022-12-18T17:54:41.478Z,3.60
2022-12-18T17:57:10.376Z,3.60
2022-12-18T17:59:38.096Z,3.60
2022-12-18T18:02:05.845Z,3.60
2022-12-18T18:04:34.194Z,3.60
2022-12-18T18:07:03.155Z,3.60
2022-12-18T18:09:30.072Z,3.60
2022-12-18T18:12:29.952Z,3.60
2022-12-18T18:14:56.823Z,3.60
2022-12-18T18:17:24.797Z,3.60
2022-12-18T18:19:53.132Z,3.60
2022-12-18T18:22:21.025Z,3.60
2022-12-18T18:24:50.620Z,3.60
2022-12-18T18:27:18.323Z,3.50
2022-12-18T18:29:46.897Z,3.50
2022-12-18T18:32:13.867Z,3.60
2022-12-18T18:34:43.965Z,3.60
2022-12-18T18:37:12.315Z,3.50
2022-12-18T18:39:41.472Z,3.50
2022-12-18T18:42:09.803Z,3.50
2022-12-18T18:44:38.200Z,3.50
2022-12-18T18:47:09.632Z,3.50
2022-12-18T18:49:38.122Z,3.50
2022-12-18T18:52:07.460Z,3.40
2022-12-18T18:54:36.595Z,3.50
2022-12-18T18:57:20.241Z,3.50
2022-12-18T18:59:49.564Z,3.40
2022-12-18T19:02:18.901Z,3.40
2022-12-18T19:04:47.078Z,3.40
2022-12-18T19:07:23.869Z,3.40
2022-12-18T19:10:04.956Z,3.40
2022-12-18T19:12:53.426Z,3.40
2022-12-18T19:15:22.518Z,3.40
2022-12-18T19:17:50.968Z,3.40
2022-12-18T19:20:19.432Z,3.40
2022-12-18T19:22:50.723Z,3.40
2022-12-18T19:25:38.125Z,3.30
2022-12-18T19:28:13.507Z,3.40
2022-12-18T19:30:58.599Z,3.40
2022-12-18T19:33:44.827Z,3.40
2022-12-18T19:36:15.120Z,3.40
2022-12-18T19:38:44.120Z,3.30
2022-12-18T19:41:15.160Z,3.30
2022-12-18T19:43:43.617Z,3.30
2022-12-18T19:46:17.667Z,3.30
2022-12-18T19:48:45.431Z,3.20
2022-12-18T19:51:27.708Z,3.30
2022-12-18T19:53:59.410Z,3.20
2022-12-18T19:56:33.193Z,3.20
2022-12-18T19:59:02.842Z,3.20
2022-12-18T20:01:32.031Z,3.20
2022-12-18T20:04:00.355Z,3.20
2022-12-18T20:06:32.700Z,3.20
2022-12-18T20:09:04.239Z,3.20
2022-12-18T20:11:33.759Z,3.10
2022-12-18T20:14:07.593Z,3.20
2022-12-18T20:16:36.831Z,3.10
2022-12-18T20:19:06.993Z,3.10
2022-12-18T20:21:34.163Z,3.20
2022-12-18T20:24:02.467Z,3.10
2022-12-18T20:26:30.865Z,3.10
2022-12-18T20:29:00.509Z,3.10
2022-12-18T20:31:29.392Z,3.10
2022-12-18T20:33:59.723Z,3.10
2022-12-18T20:36:30.775Z,3.00
2022-12-18T20:39:05.052Z,3.00
2022-12-18T20:41:38.147Z,3.00
2022-12-18T20:44:22.236Z,3.00
2022-12-18T20:46:57.931Z,3.00
2022-12-18T20:49:26.544Z,3.00
2022-12-18T20:51:57.567Z,3.00
2022-12-18T20:54:26.929Z,3.00
2022-12-18T20:56:55.282Z,3.00
2022-12-18T20:59:23.308Z,3.00
2022-12-18T21:01:55.537Z,3.00
2022-12-18T21:04:26.545Z,3.00
2022-12-18T21:07:01.926Z,3.00
2022-12-18T21:09:37.538Z,3.00
2022-12-18T21:12:33.628Z,3.00
2022-12-18T21:15:13.403Z,3.00
2022-12-18T21:17:45.071Z,3.00
2022-12-18T21:20:17.808Z,3.00
2022-12-18T21:22:47.261Z,2.90
2022-12-18T21:25:15.713Z,2.90
2022-12-18T21:27:43.383Z,2.90
2022-12-18T21:30:11.314Z,2.80
2022-12-18T21:32:40.933Z,2.80
2022-12-18T21:35:08.981Z,2.80
2022-12-18T21:37:36.997Z,2.80
2022-12-18T21:40:06.272Z,2.80
2022-12-18T21:42:52.345Z,2.70
2022-12-18T21:45:20.650Z,2.70
2022-12-18T21:47:47.579Z,2.70
2022-12-18T21:50:16.123Z,2.60
2022-12-18T21:52:44.805Z,2.60
2022-12-18T21:55:13.150Z,2.60
2022-12-18T21:57:41.032Z,2.50
2022-12-18T22:00:19.218Z,2.50
2022-12-18T22:03:08.725Z,2.50
2022-12-18T22:05:36.744Z,2.50
2022-12-18T22:08:06.702Z,2.50
2022-12-18T22:10:34.560Z,2.50
2022-12-18T22:13:05.474Z,2.50
2022-12-18T22:15:33.065Z,2.50
2022-12-18T22:18:00.784Z,2.50
2022-12-18T22:20:29.451Z,2.50
2022-12-18T22:22:58.848Z,2.50
2022-12-18T22:25:30.281Z,2.40
2022-12-18T22:28:19.259Z,2.40
2022-12-18T22:30:46.914Z,2.40
2022-12-18T22:33:15.368Z,2.40
2022-12-18T22:35:43.051Z,2.40
2022-12-18T22:38:11.867Z,2.40
2022-12-18T22:40:39.541Z,2.40
2022-12-18T22:43:07.912Z,2.40
2022-12-18T22:45:38.387Z,2.40
2022-12-18T22:48:06.623Z,2.30
2022-12-18T22:50:35.631Z,2.30
2022-12-18T22:53:03.220Z,2.30
2022-12-18T22:55:31.499Z,2.40
2022-12-18T22:58:00.581Z,2.30
2022-12-18T23:00:29.179Z,2.30
2022-12-18T23:03:00.750Z,2.30
2022-12-18T23:05:30.863Z,2.30
2022-12-18T23:07:59.697Z,2.30
2022-12-18T23:10:27.639Z,2.30
2022-12-18T23:12:56.041Z,2.30
2022-12-18T23:15:28.228Z,2.20
2022-12-18T23:18:00.148Z,2.20
2022-12-18T23:20:27.898Z,2.20
2022-12-18T23:22:56.271Z,2.20
2022-12-18T23:25:24.670Z,2.20
2022-12-18T23:27:52.356Z,2.20
2022-12-18T23:30:22.363Z,2.20
2022-12-18T23:32:50.672Z,2.20
2022-12-18T23:35:18.890Z,2.20
2022-12-18T23:37:59.356Z,2.20
2022-12-18T23:40:29.390Z,2.20
2022-12-18T23:43:00.238Z,2.10
2022-12-18T23:45:29.391Z,2.10
2022-12-18T23:47:57.687Z,2.10
2022-12-18T23:50:29.727Z,2.20
2022-12-18T23:53:04.759Z,2.20
2022-12-18T23:55:33.145Z,2.20
2022-12-18T23:58:00.025Z,2.20
